createdAt,value
2022-10-24T01:49:25.016Z,98730.31
2022-10-24T01:53:49.776Z,98736.25
2022-10-24T01:58:18.638Z,98739.66
2022-10-24T02:02:42.427Z,98744.84
2022-10-24T02:07:00.736Z,98747.34
2022-10-24T02:15:56.800Z,98738.50
2022-10-24T02:25:12.190Z,98739.16
2022-10-24T02:29:25.912Z,98738.25
2022-10-24T02:33:56.029Z,98736.50
2022-10-24T02:38:52.053Z,98721.66
2022-10-24T02:43:48.152Z,98711.25
2022-10-24T02:48:16.461Z,98712.16
2022-10-24T02:52:38.762Z,98720.22
2022-10-24T03:01:26.041Z,98704.13
2022-10-24T03:05:33.159Z,98699.13
2022-10-24T03:09:43.540Z,98709.81
2022-10-24T03:14:01.964Z,98713.88
2022-10-24T03:27:47.304Z,98707.31
2022-10-24T03:32:00.789Z,98712.59
2022-10-24T03:54:26.864Z,98729.81
2022-10-24T04:03:05.601Z,98735.31
2022-10-24T04:07:23.139Z,98745.78
2022-10-24T04:11:27.753Z,98745.81
2022-10-24T04:20:45.053Z,98745.81
2022-10-24T04:25:44.396Z,98747.56
2022-10-24T04:29:58.082Z,98749.44
2022-10-24T04:39:02.731Z,98758.13
2022-10-24T04:43:16.307Z,98756.25
2022-10-24T04:47:48.203Z,98754.47
2022-10-24T04:52:10.191Z,98756.25
2022-10-24T04:56:15.995Z,98758.19
2022-10-24T05:00:29.610Z,98776.59
2022-10-24T05:04:32.979Z,98774.91
2022-10-24T05:18:17.272Z,98768.50
2022-10-24T05:22:24.569Z,98766.06
2022-10-24T05:26:28.728Z,98769.66
2022-10-24T05:30:30.337Z,98768.84
2022-10-24T05:34:31.641Z,98753.13
2022-10-24T05:38:32.893Z,98762.00
2022-10-24T05:42:43.857Z,98766.53
2022-10-24T05:46:55.984Z,98760.50
2022-10-24T05:51:15.457Z,98756.91
2022-10-24T05:55:24.777Z,98753.34
2022-10-24T05:59:31.164Z,98748.13
2022-10-24T06:03:33.258Z,98752.59
2022-10-24T06:07:35.192Z,98759.28
2022-10-24T06:11:36.517Z,98765.13
2022-10-24T06:15:37.969Z,98765.84
2022-10-24T06:23:58.801Z,98761.31
2022-10-24T06:28:00.397Z,98755.75
2022-10-24T06:32:02.472Z,98752.09
2022-10-24T06:36:05.457Z,98756.41
2022-10-24T06:40:07.236Z,98761.38
2022-10-24T06:44:10.993Z,98764.63
2022-10-24T06:48:13.409Z,98776.63
2022-10-24T06:52:20.840Z,98781.66
2022-10-24T06:56:22.433Z,98793.59
2022-10-24T07:00:24.149Z,98788.94
2022-10-24T07:04:25.913Z,98802.69
2022-10-24T07:08:36.603Z,98792.06
2022-10-24T07:16:57.357Z,98809.13
2022-10-24T07:21:03.706Z,98810.69
2022-10-24T07:25:06.537Z,98813.16
2022-10-24T07:29:10.964Z,98819.88
2022-10-24T07:33:14.569Z,98823.88
2022-10-24T07:37:16.775Z,98824.34
2022-10-24T07:45:47.739Z,98808.03
2022-10-24T07:49:53.981Z,98822.56
2022-10-24T07:53:57.158Z,98818.06
2022-10-24T07:58:03.084Z,98819.63
2022-10-24T08:02:06.157Z,98819.53
2022-10-24T08:06:10.426Z,98821.81
2022-10-24T08:10:17.078Z,98814.69
2022-10-24T08:14:20.913Z,98822.44
2022-10-24T08:18:30.199Z,98828.28
2022-10-24T08:22:34.069Z,98825.66
2022-10-24T08:26:35.656Z,98822.38
2022-10-24T08:30:37.034Z,98823.34
2022-10-24T08:34:38.445Z,98823.88
2022-10-24T08:38:40.164Z,98812.97
2022-10-24T08:42:41.518Z,98817.53
2022-10-24T08:46:51.682Z,98809.94
2022-10-24T08:51:11.600Z,98802.72
2022-10-24T08:55:30.894Z,98799.13
2022-10-24T08:59:45.931Z,98791.81
2022-10-24T09:08:35.880Z,98797.78
2022-10-24T09:12:40.120Z,98795.19
2022-10-24T09:16:44.065Z,98801.09
2022-10-24T09:20:45.875Z,98807.84
2022-10-24T09:24:53.908Z,98814.28
2022-10-24T09:28:57.361Z,98828.00
2022-10-24T09:33:06.649Z,98830.97
2022-10-24T09:37:08.128Z,98842.88
2022-10-24T09:41:24.400Z,98840.16
2022-10-24T09:45:29.666Z,98850.47
2022-10-24T09:49:35.777Z,98856.91
2022-10-24T09:53:39.224Z,98863.94
2022-10-24T09:57:41.042Z,98883.25
2022-10-24T10:01:42.514Z,98888.94
2022-10-24T10:05:45.796Z,98891.59
2022-10-24T10:09:55.645Z,98895.91
2022-10-24T10:14:00.281Z,98904.19
2022-10-24T10:18:25.050Z,98918.59
2022-10-24T10:22:31.692Z,98914.63
2022-10-24T10:26:43.706Z,98916.81
2022-10-24T10:30:58.737Z,98931.94
2022-10-24T10:35:13.202Z,98928.38
2022-10-24T10:39:33.490Z,98946.06
2022-10-24T10:43:47.085Z,98941.13
2022-10-24T10:47:58.496Z,98926.00
2022-10-24T10:52:06.248Z,98940.91
2022-10-24T10:56:26.437Z,98923.25
2022-10-24T11:00:37.471Z,98943.66
2022-10-24T11:04:38.913Z,98944.53
2022-10-24T11:13:08.065Z,98949.47
2022-10-24T11:17:21.442Z,98957.78
2022-10-24T11:21:26.858Z,98946.78
2022-10-24T11:25:38.792Z,98946.25
2022-10-24T11:29:55.138Z,98931.94
2022-10-24T11:34:13.915Z,98925.63
2022-10-24T11:38:23.040Z,98918.00
2022-10-24T11:42:37.333Z,98921.75
2022-10-24T11:46:45.657Z,98915.94
2022-10-24T11:51:00.165Z,98909.41
2022-10-24T11:55:16.466Z,98929.41
2022-10-24T11:59:28.058Z,98906.72
2022-10-24T12:03:44.854Z,98908.81
2022-10-24T12:08:34.952Z,98897.88
2022-10-24T12:13:02.722Z,98911.91
2022-10-24T12:17:09.721Z,98910.38
2022-10-24T12:25:36.301Z,98905.25
2022-10-24T12:29:39.608Z,98913.28
2022-10-24T12:38:04.028Z,98906.94
2022-10-24T12:42:19.793Z,98892.84
2022-10-24T12:46:28.538Z,98903.31
2022-10-24T12:50:34.512Z,98893.78
2022-10-24T12:54:44.115Z,98887.06
2022-10-24T13:03:58.469Z,98885.56
2022-10-24T13:17:00.586Z,98896.41
2022-10-24T13:21:15.125Z,98897.88
2022-10-24T13:25:21.545Z,98895.13
2022-10-24T13:29:34.153Z,98894.09
2022-10-24T13:33:36.381Z,98890.69
2022-10-24T13:37:59.167Z,98894.19
2022-10-24T13:42:05.375Z,98891.19
2022-10-24T13:46:13.097Z,98896.03
2022-10-24T13:50:22.032Z,98904.28
2022-10-24T13:54:26.186Z,98902.97
2022-10-24T13:58:27.681Z,98913.69
2022-10-24T14:02:32.298Z,98913.75
2022-10-24T14:06:33.989Z,98911.91
2022-10-24T14:10:35.451Z,98929.84
2022-10-24T14:14:39.859Z,98929.91
2022-10-24T14:18:41.586Z,98936.16
2022-10-24T14:22:43.171Z,98940.44
2022-10-24T14:26:47.822Z,98941.22
2022-10-24T14:30:53.672Z,98931.75
2022-10-24T14:34:56.524Z,98952.50
2022-10-24T14:38:59.581Z,98949.66
2022-10-24T14:43:00.932Z,98954.25
2022-10-24T14:47:06.048Z,98943.88
2022-10-24T14:51:11.645Z,98947.53
2022-10-24T14:55:23.193Z,98940.72
2022-10-24T14:59:24.629Z,98944.34
2022-10-24T15:03:26.823Z,98938.38
2022-10-24T15:07:36.293Z,98935.97
2022-10-24T15:11:40.085Z,98940.53
2022-10-24T15:15:44.400Z,98928.78
2022-10-24T15:19:47.917Z,98937.75
2022-10-24T15:23:54.808Z,98944.06
2022-10-24T15:27:59.515Z,98945.13
2022-10-24T15:32:00.748Z,98946.25
2022-10-24T15:36:05.232Z,98939.44
2022-10-24T15:40:13.370Z,98935.31
2022-10-24T15:44:14.695Z,98930.38
2022-10-24T15:48:15.971Z,98941.28
2022-10-24T15:52:17.412Z,98936.28
2022-10-24T15:56:18.705Z,98933.03
2022-10-24T16:00:21.480Z,98940.53
2022-10-24T16:04:23.399Z,98940.13
2022-10-24T16:08:25.769Z,98943.31
2022-10-24T16:12:27.024Z,98938.72
2022-10-24T16:16:28.420Z,98949.81
2022-10-24T16:20:30.166Z,98954.78
2022-10-24T16:24:31.483Z,98959.72
2022-10-24T16:28:32.713Z,98972.66
2022-10-24T16:32:34.032Z,98975.91
2022-10-24T16:36:35.310Z,98975.72
2022-10-24T16:40:38.417Z,98985.00
2022-10-24T16:44:39.642Z,98987.38
2022-10-24T16:48:41.205Z,98988.84
2022-10-24T16:52:42.779Z,98977.97
2022-10-24T16:56:44.768Z,98979.25
2022-10-24T17:00:47.020Z,98978.75
2022-10-24T17:04:49.092Z,98994.66
2022-10-24T17:08:51.426Z,98990.63
2022-10-24T17:12:53.092Z,98989.25
2022-10-24T17:16:54.381Z,98993.91
2022-10-24T17:20:59.997Z,98996.75
2022-10-24T17:25:01.348Z,99006.50
2022-10-24T17:29:03.168Z,98996.28
2022-10-24T17:33:04.526Z,99002.34
2022-10-24T17:37:15.008Z,99008.41
2022-10-24T17:41:19.248Z,99014.44
2022-10-24T17:45:22.268Z,99006.63
2022-10-24T17:49:23.652Z,99000.66
2022-10-24T17:53:25.057Z,98995.34
2022-10-24T17:57:27.888Z,98981.41
2022-10-24T18:01:29.256Z,98984.00
2022-10-24T18:05:30.980Z,98984.69
2022-10-24T18:09:32.560Z,98980.31
2022-10-24T18:13:35.322Z,98987.34
2022-10-24T18:17:36.936Z,98984.00
2022-10-24T18:21:38.359Z,98994.47
2022-10-24T18:25:39.779Z,99001.53
2022-10-24T18:33:47.813Z,99011.22
2022-10-24T18:37:49.801Z,99032.75
2022-10-24T18:41:56.142Z,99047.44
2022-10-24T18:45:57.688Z,99056.94
2022-10-24T18:49:59.885Z,99062.25
2022-10-24T18:54:04.049Z,99066.75
2022-10-24T18:58:10.428Z,99071.16
2022-10-24T19:02:25.025Z,99090.19
2022-10-24T19:06:27.760Z,99094.94
2022-10-24T19:10:29.185Z,99095.66
2022-10-24T19:14:31.125Z,99100.00
2022-10-24T19:18:34.222Z,99104.22
2022-10-24T19:22:35.753Z,99108.56
2022-10-24T19:26:37.090Z,99110.38
2022-10-24T19:30:42.134Z,99116.53
2022-10-24T19:34:43.397Z,99107.00
2022-10-24T19:38:44.803Z,99113.22
2022-10-24T19:42:46.232Z,99121.22
2022-10-24T19:46:47.573Z,99110.78
2022-10-24T19:50:48.979Z,99110.00
2022-10-24T19:54:50.542Z,99117.97
2022-10-24T19:58:52.569Z,99119.81
2022-10-24T20:02:54.305Z,99123.47
2022-10-24T20:06:55.771Z,99131.56
2022-10-24T20:10:57.320Z,99130.72
2022-10-24T20:14:58.617Z,99120.41
2022-10-24T20:19:00.345Z,99124.13
2022-10-24T20:23:01.780Z,99132.06
2022-10-24T20:27:03.103Z,99137.47
2022-10-24T20:31:05.174Z,99138.59
2022-10-24T20:35:06.713Z,99151.88
2022-10-24T20:39:12.391Z,99148.56
2022-10-24T20:43:16.300Z,99165.28
2022-10-24T20:47:17.640Z,99170.63
2022-10-24T20:51:20.068Z,99182.06
2022-10-24T20:55:31.673Z,99183.91
2022-10-24T20:59:41.184Z,99182.19
2022-10-24T21:03:42.854Z,99199.66
2022-10-24T21:07:48.213Z,99205.81
2022-10-24T21:11:49.578Z,99207.56
2022-10-24T21:15:57.168Z,99213.69
2022-10-24T21:19:58.508Z,99212.00
2022-10-24T21:24:04.229Z,99218.22
2022-10-24T21:28:08.019Z,99218.38
2022-10-24T21:32:09.309Z,99225.50
2022-10-24T21:36:12.392Z,99233.41
2022-10-24T21:40:13.781Z,99242.13
2022-10-24T21:44:15.090Z,99243.88
2022-10-24T21:48:16.875Z,99235.25
2022-10-24T21:52:19.328Z,99242.19
2022-10-24T21:56:22.442Z,99242.19
2022-10-24T22:00:23.761Z,99244.00
2022-10-24T22:04:25.201Z,99252.72
2022-10-24T22:08:26.466Z,99249.28
2022-10-24T22:12:27.921Z,99256.25
2022-10-24T22:16:30.585Z,99257.19
2022-10-24T22:20:32.712Z,99256.44
2022-10-24T22:24:34.064Z,99260.84
2022-10-24T22:28:35.368Z,99255.75
2022-10-24T22:32:36.794Z,99259.28
2022-10-24T22:36:41.838Z,99262.03
2022-10-24T22:40:43.510Z,99262.06
2022-10-24T22:44:45.468Z,99273.38
2022-10-24T22:48:48.800Z,99279.50
2022-10-24T22:52:50.448Z,99280.44
2022-10-24T22:56:52.017Z,99270.09
2022-10-24T23:01:00.847Z,99285.75
2022-10-24T23:05:13.798Z,99284.94
2022-10-24T23:09:15.470Z,99287.56
2022-10-24T23:13:17.653Z,99289.41
2022-10-24T23:17:23.705Z,99297.28
2022-10-24T23:21:36.897Z,99299.91
2022-10-24T23:25:38.220Z,99307.75
2022-10-24T23:29:41.791Z,99311.19
2022-10-24T23:33:43.496Z,99303.38
2022-10-24T23:37:46.660Z,99312.91
2022-10-24T23:41:48.120Z,99308.56
2022-10-24T23:45:55.389Z,99309.44
2022-10-24T23:50:15.713Z,99315.50
2022-10-24T23:54:19.380Z,99319.81
2022-10-24T23:58:20.689Z,99318.09
